Aérodrome :
LOGIN :

S'inscrire | Disclaimer

   EN    FR    IT 

 










Légende :    VFR   VFR Marginal   IFR   IFR Intensif   IFR Très Intensif
Visi : 
Plafond : 
>= 8 km
>= 3000ft
5 à 8 km
1000 à 3000 ft
1500m à 5 km
500 à 1000 ft
800 à 1500m
200 à 500 ft
< 800m
< 200 ft
Symboles :   Orages  Brouillard  Fortes neiges  Fortes précipitations  Vent > 20 kt
SIGMETs :   Divers  Orages  Givrage  Turbulence  Onde Orograph.  Cendres Volcan.







- Altitude de l'aérodrome : 404 ft
- Code IATA : WRO


EPWR - Wroclaw

DERNIER METAR :
  • 230500Z 12009KT 2000 DRSN BR OVC002 M09/M10 Q1006

METARs EXPIRÉS :
  • 230430Z 11011KT 1500 DRSN BR OVC002 M09/M11 Q1007
  • 230400Z 12012KT 1200 R29/2000N -SG DRSN BR OVC002 M09/M10 Q1007
  • 230330Z 14012KT 1200 R29/1900N -SN BR BKN002 M09/M10 Q1007
  • 230300Z 13012KT 1200 R29/1900N -SG BR BKN002 M09/M10 Q1007
  • 230230Z 14011KT 1200 R29/2000N -SG BR BKN003 M09/M10 Q1007

TAF TAF EPWR
Valide du 23 à 03h jusqu'au 24 à 03h UTC


230230Z 2303/2403 11012KT 1200 BR OVC003
TEMPO 2303/2306 2000 BR OVC005
BECMG 2306/2309 6000 OVC012
BECMG 2317/2320 OVC008
Pas de NOTAMs connus pour ce terrain.



MET'MAP, la Météo Aéronautique d'un coup d'oeil ! - Copyright ORBIFLY Décembre 2007 - Disclaimer

ORBIFLY MET'MAP TEAM :

Programmation & Développement : Alexandra Zaïnal
Conception & Développement : Baudouin d'Aumeries
Co-Programmation & Développement : Marc-Olivier Méhu
Soutien technique & logistique : Manuel Goepfert

Contact : metmap@orbifly.com




SOURCES & CREDITS :

   NOAA